createdAt,value
2023-01-27T00:02:15.948Z,100702.28
2023-01-27T00:04:44.554Z,100695.56
2023-01-27T00:07:13.217Z,100695.94
2023-01-27T00:09:42.734Z,100692.09
2023-01-27T00:12:43.199Z,100683.88
2023-01-27T00:15:14.026Z,100682.31
2023-01-27T00:17:43.033Z,100679.44
2023-01-27T00:20:12.588Z,100682.69
2023-01-27T00:22:58.506Z,100676.63
2023-01-27T00:25:27.144Z,100678.53
2023-01-27T00:27:55.757Z,100679.75
2023-01-27T00:30:24.376Z,100675.44
2023-01-27T00:33:10.102Z,100674.72
2023-01-27T00:35:38.740Z,100679.44
2023-01-27T00:38:07.306Z,100674.06
2023-01-27T00:40:35.945Z,100676.50
2023-01-27T00:43:04.578Z,100674.44
2023-01-27T00:45:52.645Z,100678.47
2023-01-27T00:48:21.244Z,100680.03
2023-01-27T00:50:49.852Z,100675.16
2023-01-27T00:53:18.608Z,100674.97
2023-01-27T00:55:48.514Z,100678.06
2023-01-27T00:58:17.228Z,100679.94
2023-01-27T01:00:46.626Z,100673.47
2023-01-27T01:03:15.448Z,100680.22
2023-01-27T01:05:44.015Z,100679.09
2023-01-27T01:08:12.714Z,100685.91
2023-01-27T01:10:41.692Z,100679.69
2023-01-27T01:13:12.022Z,100675.09
2023-01-27T01:15:41.119Z,100680.03
2023-01-27T01:18:11.636Z,100678.38
2023-01-27T01:20:44.457Z,100678.44
2023-01-27T01:23:14.028Z,100689.44
2023-01-27T01:25:43.446Z,100691.06
2023-01-27T01:28:12.385Z,100680.81
2023-01-27T01:30:41.022Z,100690.75
2023-01-27T01:33:09.646Z,100693.53
2023-01-27T01:35:40.270Z,100688.88
2023-01-27T01:38:08.886Z,100690.16
2023-01-27T01:40:45.557Z,100688.19
2023-01-27T01:43:17.530Z,100690.22
2023-01-27T01:46:00.560Z,100696.84
2023-01-27T01:48:57.447Z,100697.41
2023-01-27T01:51:35.986Z,100697.59
2023-01-27T01:54:23.105Z,100697.94
2023-01-27T01:57:06.811Z,100697.91
2023-01-27T01:59:50.311Z,100697.78
2023-01-27T02:02:24.431Z,100697.06
2023-01-27T02:04:57.773Z,100699.22
2023-01-27T02:07:41.255Z,100694.63
2023-01-27T02:10:09.976Z,100705.03
2023-01-27T02:12:38.610Z,100701.94
2023-01-27T02:15:08.710Z,100691.81
2023-01-27T02:17:37.622Z,100682.41
2023-01-27T02:20:45.164Z,100691.69
2023-01-27T02:23:37.199Z,100686.06
2023-01-27T02:26:05.875Z,100682.59
2023-01-27T02:28:34.507Z,100683.94
2023-01-27T02:31:03.242Z,100687.19
2023-01-27T02:33:31.934Z,100687.09
2023-01-27T02:36:15.580Z,100679.16
2023-01-27T02:38:54.157Z,100683.31
2023-01-27T02:41:47.898Z,100689.00
2023-01-27T02:44:16.591Z,100689.00
2023-01-27T02:46:48.335Z,100687.66
2023-01-27T02:49:17.345Z,100699.13
2023-01-27T02:51:45.950Z,100691.56
2023-01-27T02:54:14.641Z,100707.72
2023-01-27T02:56:43.374Z,100711.84
2023-01-27T02:59:11.907Z,100720.91
2023-01-27T03:01:40.632Z,100723.38
2023-01-27T03:04:12.012Z,100725.97
2023-01-27T03:06:40.798Z,100742.81
2023-01-27T03:09:09.685Z,100732.88
2023-01-27T03:11:55.456Z,100731.50
2023-01-27T03:14:37.539Z,100738.22
2023-01-27T03:17:23.555Z,100743.28
2023-01-27T03:19:53.449Z,100749.09
2023-01-27T03:22:22.063Z,100743.41
2023-01-27T03:24:50.606Z,100744.59
2023-01-27T03:27:19.293Z,100741.72
2023-01-27T03:29:57.011Z,100738.97
2023-01-27T03:32:31.593Z,100735.50
2023-01-27T03:35:01.570Z,100746.28
2023-01-27T03:37:47.631Z,100751.53
2023-01-27T03:40:34.097Z,100752.06
2023-01-27T03:43:20.344Z,100756.47
2023-01-27T03:46:10.127Z,100751.03
2023-01-27T03:48:38.727Z,100751.53
2023-01-27T03:51:09.541Z,100745.38
2023-01-27T03:53:38.515Z,100748.25
2023-01-27T03:56:07.461Z,100751.25
2023-01-27T03:58:38.754Z,100747.88
2023-01-27T04:01:14.487Z,100755.25
2023-01-27T04:04:01.323Z,100751.81
2023-01-27T04:06:50.640Z,100754.16
2023-01-27T04:09:31.817Z,100752.25
2023-01-27T04:12:02.356Z,100748.53
2023-01-27T04:14:38.264Z,100754.81
2023-01-27T04:17:14.172Z,100759.19
2023-01-27T04:19:42.944Z,100757.03
2023-01-27T04:22:13.950Z,100759.19
2023-01-27T04:24:42.518Z,100751.88
2023-01-27T04:27:16.750Z,100760.56
2023-01-27T04:29:45.156Z,100761.31
2023-01-27T04:32:14.747Z,100757.31
2023-01-27T04:34:43.624Z,100752.44
2023-01-27T04:37:12.350Z,100759.19
2023-01-27T04:39:41.787Z,100764.50
2023-01-27T04:42:10.199Z,100760.13
2023-01-27T04:44:38.627Z,100761.88
2023-01-27T04:47:07.030Z,100758.81
2023-01-27T04:49:35.462Z,100770.78
2023-01-27T04:52:03.879Z,100771.81
2023-01-27T04:54:32.341Z,100771.53
2023-01-27T04:57:03.957Z,100774.44
2023-01-27T04:59:32.408Z,100774.63
2023-01-27T05:02:00.952Z,100773.97
2023-01-27T05:04:29.445Z,100767.13
2023-01-27T05:06:57.862Z,100779.31
2023-01-27T05:09:26.575Z,100767.78
2023-01-27T05:11:55.013Z,100779.03
2023-01-27T05:14:24.473Z,100773.41
2023-01-27T05:16:53.020Z,100780.53
2023-01-27T05:19:21.498Z,100783.16
2023-01-27T05:21:49.937Z,100782.56
2023-01-27T05:24:18.364Z,100779.22
2023-01-27T05:26:46.838Z,100789.59
2023-01-27T05:29:15.504Z,100779.56
2023-01-27T05:31:43.954Z,100783.69
2023-01-27T05:34:12.415Z,100788.66
2023-01-27T05:36:40.817Z,100795.09
2023-01-27T05:39:11.416Z,100785.00
2023-01-27T05:41:40.042Z,100788.66
2023-01-27T05:44:13.552Z,100790.81
2023-01-27T05:46:42.638Z,100795.03
2023-01-27T05:49:11.070Z,100784.63
2023-01-27T05:51:41.080Z,100785.00
2023-01-27T05:54:10.096Z,100794.91
2023-01-27T05:56:39.246Z,100788.00
2023-01-27T05:59:08.528Z,100787.16
2023-01-27T06:01:37.676Z,100787.69
2023-01-27T06:04:06.680Z,100795.28
2023-01-27T06:06:35.459Z,100800.25
2023-01-27T06:09:03.960Z,100800.34
2023-01-27T06:11:32.536Z,100803.63
2023-01-27T06:14:01.109Z,100807.34
2023-01-27T06:16:29.601Z,100807.38
2023-01-27T06:18:58.711Z,100818.03
2023-01-27T06:21:27.271Z,100810.81
2023-01-27T06:23:56.066Z,100804.38
2023-01-27T06:26:24.749Z,100812.13
2023-01-27T06:28:53.187Z,100805.00
2023-01-27T06:31:23.298Z,100818.69
2023-01-27T06:33:52.767Z,100817.44
2023-01-27T06:36:23.992Z,100819.22
2023-01-27T06:38:56.071Z,100818.88
2023-01-27T06:41:24.906Z,100815.47
2023-01-27T06:43:58.279Z,100809.13
2023-01-27T06:46:26.866Z,100816.06
2023-01-27T06:48:55.532Z,100814.56
2023-01-27T06:51:24.080Z,100813.78
2023-01-27T06:53:52.489Z,100825.03
2023-01-27T06:56:21.048Z,100823.72
2023-01-27T06:58:49.645Z,100824.47
2023-01-27T07:01:18.408Z,100823.16
2023-01-27T07:03:46.853Z,100822.03
2023-01-27T07:06:16.260Z,100819.03
2023-01-27T07:08:46.997Z,100820.84
2023-01-27T07:11:15.703Z,100821.84
2023-01-27T07:13:44.385Z,100824.75
2023-01-27T07:16:12.832Z,100830.94
2023-01-27T07:18:41.258Z,100833.44
2023-01-27T07:21:09.620Z,100834.03
2023-01-27T07:23:37.996Z,100837.50
2023-01-27T07:26:19.218Z,100840.41
2023-01-27T07:28:51.945Z,100846.47
2023-01-27T07:31:20.499Z,100843.66
2023-01-27T07:33:49.149Z,100844.88
2023-01-27T07:36:17.605Z,100843.78
2023-01-27T07:38:45.991Z,100855.25
2023-01-27T07:41:14.654Z,100855.34
2023-01-27T07:43:43.163Z,100857.88
2023-01-27T07:46:11.590Z,100851.88
2023-01-27T07:48:40.063Z,100857.97
2023-01-27T07:51:12.334Z,100857.50
2023-01-27T07:53:41.214Z,100863.78
2023-01-27T07:56:11.993Z,100864.50
2023-01-27T07:58:41.036Z,100870.50
2023-01-27T08:01:14.254Z,100872.09
2023-01-27T08:03:42.692Z,100875.56
2023-01-27T08:06:12.903Z,100879.88
2023-01-27T08:08:41.721Z,100879.41
2023-01-27T08:11:14.025Z,100872.19
2023-01-27T08:13:42.541Z,100873.31
2023-01-27T08:16:15.320Z,100885.41
2023-01-27T08:18:44.173Z,100885.13
2023-01-27T08:21:14.253Z,100890.00
2023-01-27T08:23:42.776Z,100887.09
2023-01-27T08:26:11.235Z,100879.69
2023-01-27T08:28:41.239Z,100875.38
2023-01-27T08:31:16.220Z,100877.63
2023-01-27T08:33:47.518Z,100878.34
2023-01-27T08:36:18.430Z,100886.97
2023-01-27T08:38:49.259Z,100875.84
2023-01-27T08:41:26.632Z,100889.03
2023-01-27T08:43:56.396Z,100890.91
2023-01-27T08:46:25.143Z,100896.81
2023-01-27T08:48:53.627Z,100899.91
2023-01-27T08:51:22.052Z,100895.00
2023-01-27T08:53:50.492Z,100904.81
2023-01-27T08:56:18.940Z,100908.75
2023-01-27T08:58:48.582Z,100904.63
2023-01-27T09:01:17.735Z,100909.16
2023-01-27T09:03:46.615Z,100906.41
2023-01-27T09:06:15.486Z,100911.56
2023-01-27T09:08:44.798Z,100917.38
2023-01-27T09:11:16.794Z,100912.03
2023-01-27T09:13:45.651Z,100907.25
2023-01-27T09:16:14.073Z,100904.06
2023-01-27T09:18:42.480Z,100908.22
2023-01-27T09:21:11.624Z,100903.16
2023-01-27T09:23:40.016Z,100901.25
2023-01-27T09:26:08.399Z,100904.63
2023-01-27T09:28:36.847Z,100911.06
2023-01-27T09:31:05.518Z,100915.72
2023-01-27T09:33:34.232Z,100913.66
2023-01-27T09:36:22.655Z,100914.81
2023-01-27T09:39:01.639Z,100913.03
2023-01-27T09:42:02.147Z,100911.34
2023-01-27T09:44:50.265Z,100915.88
2023-01-27T09:48:06.646Z,100917.91
2023-01-27T09:50:46.384Z,100924.72
2023-01-27T09:53:36.366Z,100911.88
2023-01-27T09:56:24.419Z,100925.72
2023-01-27T09:59:32.617Z,100922.53
2023-01-27T10:02:53.516Z,100927.91
2023-01-27T10:05:30.776Z,100918.25
2023-01-27T10:08:28.722Z,100922.91
2023-01-27T10:11:50.175Z,100920.41
2023-01-27T10:15:00.562Z,100926.94
2023-01-27T10:17:45.099Z,100921.22
2023-01-27T10:20:36.038Z,100926.69
2023-01-27T10:23:54.725Z,100934.38
2023-01-27T10:26:53.076Z,100936.50
2023-01-27T10:29:36.079Z,100934.91
2023-01-27T10:32:29.080Z,100939.66
2023-01-27T10:35:00.283Z,100936.41
2023-01-27T10:38:24.532Z,100926.84
2023-01-27T10:41:05.350Z,100935.41
2023-01-27T10:43:44.180Z,100934.78
2023-01-27T10:46:12.715Z,100928.69
2023-01-27T10:48:48.645Z,100926.69
2023-01-27T10:51:34.614Z,100925.78
2023-01-27T10:54:15.577Z,100931.69
2023-01-27T10:57:07.529Z,100932.41
2023-01-27T11:00:46.511Z,100925.25
2023-01-27T11:03:00.435Z,100923.78
2023-01-27T11:05:43.836Z,100923.16
2023-01-27T11:08:20.518Z,100917.88
2023-01-27T11:11:12.795Z,100922.84
2023-01-27T11:13:41.973Z,100918.84
2023-01-27T11:16:21.540Z,100911.81
2023-01-27T11:19:02.115Z,100911.50
2023-01-27T11:21:32.812Z,100913.94
2023-01-27T11:24:23.144Z,100917.91
2023-01-27T11:27:04.020Z,100912.22
2023-01-27T11:29:50.319Z,100914.25
2023-01-27T11:32:49.816Z,100910.38
2023-01-27T11:35:18.609Z,100903.56
2023-01-27T11:37:54.826Z,100904.72
2023-01-27T11:40:35.511Z,100910.31
2023-01-27T11:43:05.082Z,100908.06
2023-01-27T11:45:37.523Z,100899.25
2023-01-27T11:48:14.287Z,100907.34
2023-01-27T11:50:44.624Z,100904.38
2023-01-27T11:53:36.808Z,100902.50
2023-01-27T11:56:11.443Z,100907.25
2023-01-27T11:59:02.793Z,100903.56
2023-01-27T12:01:58.263Z,100904.91
2023-01-27T12:04:49.389Z,100907.97
2023-01-27T12:07:58.061Z,100902.28
2023-01-27T12:10:38.877Z,100901.34
2023-01-27T12:13:18.959Z,100900.28
2023-01-27T12:16:03.661Z,100897.16
2023-01-27T12:18:36.952Z,100894.19
2023-01-27T12:21:10.493Z,100877.25
2023-01-27T12:23:49.140Z,100890.63
2023-01-27T12:26:17.923Z,100886.22
2023-01-27T12:28:56.363Z,100891.47
2023-01-27T12:31:30.233Z,100883.16
2023-01-27T12:34:05.843Z,100873.28
2023-01-27T12:36:44.031Z,100872.00
2023-01-27T12:39:57.156Z,100877.13
2023-01-27T12:42:44.415Z,100869.25
2023-01-27T12:45:31.415Z,100869.56
2023-01-27T12:48:02.754Z,100880.75
2023-01-27T12:50:35.095Z,100867.03
2023-01-27T12:53:14.001Z,100885.13
2023-01-27T12:56:01.176Z,100874.84
2023-01-27T12:58:37.838Z,100882.72
2023-01-27T13:01:36.450Z,100879.25
2023-01-27T13:04:06.052Z,100876.91
2023-01-27T13:06:34.678Z,100882.09
2023-01-27T13:09:04.591Z,100877.69
2023-01-27T13:11:38.649Z,100880.53
2023-01-27T13:14:14.393Z,100878.53
2023-01-27T13:16:42.987Z,100872.72
2023-01-27T13:19:19.566Z,100878.91
2023-01-27T13:21:55.266Z,100872.69
2023-01-27T13:24:40.696Z,100876.06
2023-01-27T13:27:18.019Z,100873.00
2023-01-27T13:29:59.113Z,100877.81
2023-01-27T13:32:32.385Z,100874.13
2023-01-27T13:35:27.580Z,100877.31
2023-01-27T13:38:03.602Z,100876.47
2023-01-27T13:40:46.704Z,100877.09
2023-01-27T13:43:41.654Z,100880.44
2023-01-27T13:46:35.355Z,100896.66
2023-01-27T13:49:39.260Z,100888.03
2023-01-27T13:52:08.266Z,100892.66
2023-01-27T13:54:36.809Z,100885.63
2023-01-27T13:57:36.582Z,100892.53
2023-01-27T14:00:32.024Z,100908.53
2023-01-27T14:03:19.193Z,100902.25
2023-01-27T14:06:30.294Z,100915.38
2023-01-27T14:09:43.161Z,100912.22
2023-01-27T14:12:55.757Z,100917.69
2023-01-27T14:15:50.529Z,100914.34
2023-01-27T14:18:46.167Z,100913.09
2023-01-27T14:21:45.435Z,100912.69
2023-01-27T14:24:47.569Z,100921.09
2023-01-27T14:27:19.243Z,100920.78
2023-01-27T14:29:50.902Z,100916.47
2023-01-27T14:32:33.631Z,100924.75
2023-01-27T14:35:23.241Z,100918.78
2023-01-27T14:38:12.079Z,100919.22
2023-01-27T14:41:10.411Z,100927.31
2023-01-27T14:44:07.372Z,100928.34
2023-01-27T14:47:06.134Z,100921.91
2023-01-27T14:49:54.422Z,100918.78
2023-01-27T14:52:44.313Z,100923.69
2023-01-27T14:55:40.759Z,100928.03
2023-01-27T14:58:58.202Z,100923.00
2023-01-27T15:01:53.269Z,100926.56
2023-01-27T15:04:30.819Z,100932.47
2023-01-27T15:07:17.010Z,100929.09
2023-01-27T15:10:27.313Z,100929.72
2023-01-27T15:13:19.538Z,100930.97
2023-01-27T15:16:46.827Z,100941.81
2023-01-27T15:19:37.470Z,100938.56
2023-01-27T15:22:11.853Z,100933.81
2023-01-27T15:25:27.753Z,100935.41
2023-01-27T15:27:56.561Z,100940.13
2023-01-27T15:30:34.584Z,100945.81
2023-01-27T15:33:03.206Z,100951.22
2023-01-27T15:35:34.703Z,100947.59
2023-01-27T15:38:33.873Z,100950.66
2023-01-27T15:41:08.904Z,100957.06
2023-01-27T15:43:44.762Z,100949.72
2023-01-27T15:46:45.084Z,100962.03
2023-01-27T15:49:22.710Z,100960.97
2023-01-27T15:51:55.608Z,100963.38
2023-01-27T15:54:33.266Z,100969.41
2023-01-27T15:57:06.417Z,100973.81
2023-01-27T15:59:58.790Z,100974.75
2023-01-27T16:02:33.640Z,100972.75
2023-01-27T16:05:45.817Z,100979.50
2023-01-27T16:08:17.433Z,100976.44
2023-01-27T16:10:46.493Z,100980.44
2023-01-27T16:13:28.823Z,100984.00
2023-01-27T16:16:19.138Z,100987.59
2023-01-27T16:18:54.135Z,100988.44
2023-01-27T16:21:58.553Z,100977.50
2023-01-27T16:24:52.968Z,100975.16
2023-01-27T16:27:40.411Z,100992.53
2023-01-27T16:30:24.189Z,100983.47
2023-01-27T16:33:16.171Z,100993.50
2023-01-27T16:35:54.550Z,100981.91
2023-01-27T16:38:34.538Z,100984.00
2023-01-27T16:41:09.897Z,100990.66
2023-01-27T16:43:52.647Z,100979.72
2023-01-27T16:46:37.787Z,100993.59
2023-01-27T16:49:40.704Z,100997.06
2023-01-27T16:52:40.738Z,100989.81
2023-01-27T16:55:22.980Z,100988.75
2023-01-27T16:57:52.621Z,100987.81
2023-01-27T17:00:27.204Z,100994.41
2023-01-27T17:02:59.280Z,100996.97
2023-01-27T17:05:28.580Z,100999.16
2023-01-27T17:08:14.897Z,100998.63
2023-01-27T17:10:57.558Z,100998.63
2023-01-27T17:13:45.716Z,101006.63
2023-01-27T17:16:34.473Z,101010.22
2023-01-27T17:19:25.875Z,101012.81
2023-01-27T17:22:01.589Z,101006.84
2023-01-27T17:24:49.852Z,101011.03
2023-01-27T17:27:27.884Z,101021.75
2023-01-27T17:30:24.316Z,101015.16
2023-01-27T17:32:59.115Z,101015.03
2023-01-27T17:35:33.091Z,101020.84
2023-01-27T17:38:25.570Z,101032.63
2023-01-27T17:40:56.394Z,101036.22
2023-01-27T17:43:36.747Z,101032.22
2023-01-27T17:46:20.579Z,101039.69
2023-01-27T17:49:05.042Z,101039.69
2023-01-27T17:51:45.484Z,101037.16
2023-01-27T17:54:41.504Z,101042.41
2023-01-27T17:57:32.435Z,101046.19
2023-01-27T18:00:11.480Z,101042.94
2023-01-27T18:02:57.213Z,101043.69
2023-01-27T18:05:31.698Z,101057.06
2023-01-27T18:08:00.729Z,101051.47
2023-01-27T18:10:35.033Z,101036.00
2023-01-27T18:13:21.689Z,101058.31
2023-01-27T18:16:13.297Z,101052.53
2023-01-27T18:18:41.988Z,101055.88
2023-01-27T18:21:10.667Z,101049.81
2023-01-27T18:23:45.554Z,101040.09
2023-01-27T18:26:24.842Z,101053.38
2023-01-27T18:29:03.835Z,101054.31
2023-01-27T18:31:57.521Z,101062.41
2023-01-27T18:34:30.197Z,101072.09
2023-01-27T18:37:07.285Z,101062.41
2023-01-27T18:39:43.572Z,101069.88
2023-01-27T18:42:21.516Z,101072.31
2023-01-27T18:44:54.715Z,101076.50
2023-01-27T18:47:28.755Z,101076.72
2023-01-27T18:49:57.402Z,101078.34
2023-01-27T18:52:26.224Z,101074.00
2023-01-27T18:55:12.699Z,101081.34
2023-01-27T18:57:41.458Z,101080.41
2023-01-27T19:00:13.546Z,101084.09
2023-01-27T19:02:46.670Z,101082.31
2023-01-27T19:05:23.150Z,101080.84
2023-01-27T19:07:53.140Z,101083.91
2023-01-27T19:10:30.018Z,101079.56
2023-01-27T19:13:01.780Z,101079.34
2023-01-27T19:15:35.997Z,101072.94
2023-01-27T19:18:23.053Z,101083.91
2023-01-27T19:20:53.317Z,101083.69
2023-01-27T19:23:23.311Z,101075.16
2023-01-27T19:25:56.266Z,101080.84
2023-01-27T19:28:38.152Z,101082.41
2023-01-27T19:31:08.112Z,101083.38
2023-01-27T19:33:38.763Z,101089.25
2023-01-27T19:36:13.006Z,101086.94
2023-01-27T19:38:41.811Z,101095.56
2023-01-27T19:41:10.948Z,101097.47
2023-01-27T19:43:40.470Z,101101.16
2023-01-27T19:46:17.849Z,101108.22
2023-01-27T19:48:46.572Z,101104.53
2023-01-27T19:51:17.440Z,101099.25
2023-01-27T19:53:46.579Z,101096.41
2023-01-27T19:56:21.825Z,101108.09
2023-01-27T19:58:54.081Z,101091.78
2023-01-27T20:01:25.680Z,101101.03
2023-01-27T20:03:55.318Z,101101.47
2023-01-27T20:06:29.881Z,101114.31
2023-01-27T20:09:00.420Z,101107.59
2023-01-27T20:11:41.284Z,101113.03
2023-01-27T20:14:20.485Z,101116.41
2023-01-27T20:16:49.923Z,101117.25
2023-01-27T20:19:18.834Z,101119.59
2023-01-27T20:21:48.374Z,101120.53
2023-01-27T20:24:19.717Z,101120.22
2023-01-27T20:26:49.051Z,101131.59
2023-01-27T20:29:17.750Z,101125.06
2023-01-27T20:31:46.773Z,101129.78
2023-01-27T20:34:15.619Z,101130.31
2023-01-27T20:36:44.231Z,101124.63
2023-01-27T20:39:13.109Z,101119.03
2023-01-27T20:41:41.751Z,101133.38
2023-01-27T20:44:13.474Z,101131.13
2023-01-27T20:46:42.269Z,101135.59
2023-01-27T20:49:11.340Z,101132.41
2023-01-27T20:51:40.162Z,101141.78
2023-01-27T20:54:08.896Z,101138.44
2023-01-27T20:56:37.714Z,101139.34
2023-01-27T20:59:06.485Z,101138.63
2023-01-27T21:01:35.737Z,101146.81
2023-01-27T21:04:04.454Z,101149.66
2023-01-27T21:06:33.650Z,101139.84
2023-01-27T21:09:02.717Z,101150.97
2023-01-27T21:11:31.958Z,101146.91
2023-01-27T21:14:01.377Z,101142.28
2023-01-27T21:16:30.056Z,101138.94
2023-01-27T21:18:58.796Z,101148.59
2023-01-27T21:21:30.578Z,101153.00
2023-01-27T21:24:01.273Z,101148.56
2023-01-27T21:26:29.982Z,101152.13
2023-01-27T21:28:59.099Z,101143.03
2023-01-27T21:31:30.595Z,101146.53
2023-01-27T21:34:01.193Z,101146.47
2023-01-27T21:36:29.966Z,101135.94
2023-01-27T21:38:58.891Z,101140.19
2023-01-27T21:41:45.410Z,101140.19
2023-01-27T21:44:41.738Z,101145.97
2023-01-27T21:47:16.984Z,101146.63
2023-01-27T21:50:03.135Z,101147.22
2023-01-27T21:52:49.893Z,101142.41
2023-01-27T21:55:30.651Z,101149.16
2023-01-27T21:57:59.388Z,101151.47
2023-01-27T22:00:29.801Z,101150.19
2023-01-27T22:03:04.548Z,101153.97
2023-01-27T22:05:35.098Z,101156.69
2023-01-27T22:08:06.471Z,101155.41
2023-01-27T22:10:35.368Z,101156.03
2023-01-27T22:13:05.715Z,101152.06
2023-01-27T22:15:34.586Z,101161.09
2023-01-27T22:18:03.167Z,101153.75
2023-01-27T22:20:31.858Z,101146.59
2023-01-27T22:23:00.581Z,101148.28
2023-01-27T22:25:29.196Z,101150.56
2023-01-27T22:27:57.850Z,101163.63
2023-01-27T22:30:26.575Z,101156.38
2023-01-27T22:32:55.213Z,101151.41
2023-01-27T22:35:23.922Z,101141.47
2023-01-27T22:37:53.179Z,101153.88
2023-01-27T22:40:21.854Z,101154.09
2023-01-27T22:42:51.077Z,101150.75
2023-01-27T22:45:19.801Z,101144.09
2023-01-27T22:47:49.605Z,101148.69
2023-01-27T22:50:18.412Z,101148.09
2023-01-27T22:52:47.954Z,101151.78
2023-01-27T22:55:16.900Z,101148.06
2023-01-27T22:57:47.884Z,101145.94
2023-01-27T23:00:16.925Z,101151.13
2023-01-27T23:02:45.548Z,101139.03
2023-01-27T23:05:14.435Z,101143.88
2023-01-27T23:07:43.325Z,101141.75
2023-01-27T23:10:12.249Z,101150.47
2023-01-27T23:12:40.976Z,101144.63
2023-01-27T23:15:10.021Z,101144.38
2023-01-27T23:17:38.782Z,101143.72
2023-01-27T23:20:08.081Z,101144.13
2023-01-27T23:22:36.749Z,101138.88
2023-01-27T23:25:05.660Z,101133.63
2023-01-27T23:27:35.265Z,101128.63
2023-01-27T23:30:03.994Z,101136.25
2023-01-27T23:32:32.691Z,101138.13
2023-01-27T23:35:01.263Z,101137.44
2023-01-27T23:37:29.914Z,101141.13
2023-01-27T23:39:58.506Z,101137.56
2023-01-27T23:42:27.041Z,101143.63
2023-01-27T23:44:55.619Z,101131.19
2023-01-27T23:47:24.270Z,101128.56
2023-01-27T23:49:52.888Z,101137.16
2023-01-27T23:52:21.458Z,101128.16
2023-01-27T23:54:50.166Z,101136.69
2023-01-27T23:57:19.024Z,101136.44
2023-01-27T23:59:47.729Z,101128.44
